Wainwright, AK (99782)

5:50 PM AKDT on March 27, 2015 (GMT -0800)
Wainwright | | Change Station
CLOSE
Current Station
Airport
Location: Wainwright,
Elevation: 39 ft
Nearby Weather Stations

Elev 39 ft 70.64 °N, 159.99 °W | Updated 57 minutes ago

Haze
Haze
2 °F
Feels Like -6 °F
N
4
Wind Variable Wind from NNW

Today
High -- | Low -- °F
--% Chance of Precip.
Yesterday
High -- | Low -- °F
Precip. -- in
8:02 AM 9:25 PM
First Quarter, 57% visible
Pressure 29.74 in
Visibility 5.0 miles
Clouds Overcast 3900 ft
Windchill -6 °F
Dew Point -3 °F
Humidity 80%
Rainfall 0.00 in
Snow Depth Not available.
UV 0 out of 12
Pollen Not available.
Air Quality Not available.
Flu Activity Not available.
METAR PAWI 280053Z AUTO 33003KT 5SM HZ OVC039 M17/M19 A2973 RMK SNB08E19 SLP069 P0000 T11671194 TSNO VIA AUTODIAL

More Conditions Fewer Conditions

Pressure 29.74 in
Visibility 5.0 miles
Clouds Overcast 3900 ft
Windchill -6 °F
Dew Point -3 °F
Humidity 80%
Rainfall 0.00 in
Snow Depth Not available.
UV 0 out of 12
Pollen Not available.
Air Quality Not available.
Flu Activity Not available.
METAR PAWI 280053Z AUTO 33003KT 5SM HZ OVC039 M17/M19 A2973 RMK SNB08E19 SLP069 P0000 T11671194 TSNO VIA AUTODIAL

More Conditions Fewer Conditions

10-Day Weather Forecast

Almanac

Astronomy

Mar. 27, 2015 Rise Set
Actual Time
Civil Twilight
Nautical Twilight
Astronomical Twilight
Moon
Length of Visible Light
Length of Day
Tomorrow will be .
, % of the Moon is Illuminated

Today's Extremes

State Highs State Lows

Community

WunderPhotos

Upload Photos

1,808,911 photos uploaded!

WunderBlogs® & News

Nearby

Air Quality

  Air Quality AQ Index Pollutant
Not available.

Snow Depth

Station Depth Elevation

Earthquake Activity

City Distance Mag. Time & Date
Minimum magnitude displayed is 2.5.

Coastal Water Temperatures

Place Temperature

Stations

Nearby Weather Stations

Station Location Temp. Windchill Dew Point Humidity Wind Precip. Elev Updated Type